createdAt,value
2022-09-09T00:00:35.353Z,80.1
2022-09-09T00:01:35.356Z,80.7
2022-09-09T00:02:35.468Z,81
2022-09-09T00:03:35.537Z,81.1
2022-09-09T00:04:35.362Z,81.1
2022-09-09T00:05:35.355Z,80.8
2022-09-09T00:06:35.352Z,81.1
2022-09-09T00:07:35.358Z,80.1
2022-09-09T00:08:35.500Z,79
2022-09-09T00:09:35.359Z,79.3
2022-09-09T00:10:35.359Z,80.1
2022-09-09T00:11:35.356Z,79.9
2022-09-09T00:12:35.354Z,79.5
2022-09-09T00:13:35.350Z,79.3
2022-09-09T00:14:35.364Z,79.5
2022-09-09T00:16:35.358Z,80.1
2022-09-09T00:17:35.355Z,80
2022-09-09T00:18:35.493Z,80.3
2022-09-09T00:19:35.371Z,80.3
2022-09-09T00:20:35.357Z,79.5
2022-09-09T00:21:35.359Z,79.5
2022-09-09T00:22:35.358Z,79.9
2022-09-09T00:23:35.384Z,80.4
2022-09-09T00:24:35.359Z,80.1
2022-09-09T00:25:35.351Z,80.4
2022-09-09T00:26:35.352Z,80.6
2022-09-09T00:27:35.351Z,80.5
2022-09-09T00:28:35.611Z,80.1
2022-09-09T00:29:35.369Z,80
2022-09-09T00:30:35.432Z,80
2022-09-09T00:31:35.358Z,79.7
2022-09-09T00:32:35.354Z,79.8
2022-09-09T00:33:35.378Z,79.9
2022-09-09T00:34:35.366Z,80.2
2022-09-09T00:35:35.358Z,80
2022-09-09T00:37:35.364Z,80.4
2022-09-09T00:38:35.467Z,80.5
2022-09-09T00:39:35.455Z,80.4
2022-09-09T00:40:35.357Z,78.7
2022-09-09T00:41:35.360Z,78.7
2022-09-09T00:42:35.361Z,79.1
2022-09-09T00:43:35.379Z,79.5
2022-09-09T00:44:35.382Z,78.9
2022-09-09T00:45:35.392Z,79.6
2022-09-09T00:46:35.498Z,78.6
2022-09-09T00:47:35.371Z,78.9
2022-09-09T00:48:35.524Z,79.3
2022-09-09T00:49:35.374Z,78.4
2022-09-09T00:50:35.373Z,78.7
2022-09-09T00:51:35.364Z,78.8
2022-09-09T00:52:35.371Z,79.3
2022-09-09T00:53:35.373Z,79.3
2022-09-09T00:54:35.415Z,79.6
2022-09-09T00:55:35.366Z,79.9
2022-09-09T00:56:35.387Z,80
2022-09-09T00:57:35.377Z,80
2022-09-09T00:58:35.469Z,80.7
2022-09-09T01:00:35.370Z,80.4
2022-09-09T01:01:35.400Z,80.5
2022-09-09T01:02:35.412Z,80.6
2022-09-09T01:03:35.373Z,80.8
2022-09-09T01:04:35.369Z,80.9
2022-09-09T01:05:35.374Z,81.1
2022-09-09T01:06:35.378Z,81.1
2022-09-09T01:07:35.369Z,80.9
2022-09-09T01:08:35.969Z,80.7
2022-09-09T01:09:35.378Z,80.8
2022-09-09T01:10:35.369Z,80.7
2022-09-09T01:11:35.374Z,80.7
2022-09-09T01:12:35.377Z,80.3
2022-09-09T01:13:35.379Z,80
2022-09-09T01:14:35.380Z,80.5
2022-09-09T01:15:35.377Z,80.5
2022-09-09T01:16:35.444Z,80.5
2022-09-09T01:17:35.376Z,80.2
2022-09-09T01:18:35.735Z,80.4
2022-09-09T01:19:35.378Z,80.4
2022-09-09T01:21:35.383Z,81.1
2022-09-09T01:22:35.376Z,80.7
2022-09-09T01:23:35.379Z,80.5
2022-09-09T01:24:35.379Z,80.3
2022-09-09T01:25:35.402Z,80.3
2022-09-09T01:26:35.384Z,80.1
2022-09-09T01:27:35.385Z,79.9
2022-09-09T01:28:35.457Z,79.4
2022-09-09T01:29:35.392Z,79.3
2022-09-09T01:30:35.419Z,79.5
2022-09-09T01:31:35.395Z,79.7
2022-09-09T01:32:35.374Z,79.6
2022-09-09T01:33:35.386Z,80.1
2022-09-09T01:34:35.379Z,79.8
2022-09-09T01:35:35.386Z,79.8
2022-09-09T01:36:35.378Z,80.4
2022-09-09T01:37:35.382Z,80.4
2022-09-09T01:38:35.498Z,80.6
2022-09-09T01:39:35.437Z,80.8
2022-09-09T01:40:35.379Z,80.6
2022-09-09T01:42:35.387Z,80.6
2022-09-09T01:43:35.387Z,80
2022-09-09T01:44:35.385Z,80.7
2022-09-09T01:45:35.417Z,80.8
2022-09-09T01:46:35.391Z,80.5
2022-09-09T01:47:35.385Z,80.4
2022-09-09T01:48:35.538Z,80.6
2022-09-09T01:49:35.400Z,80.4
2022-09-09T01:50:35.383Z,80.6
2022-09-09T01:51:35.391Z,80.2
2022-09-09T01:52:35.387Z,80
2022-09-09T01:53:35.389Z,80.4
2022-09-09T01:54:35.384Z,80.9
2022-09-09T01:55:35.392Z,81.2
2022-09-09T01:56:35.409Z,81.3
2022-09-09T01:57:35.387Z,81.2
2022-09-09T01:58:35.672Z,81.4
2022-09-09T01:59:35.390Z,81
2022-09-09T02:00:35.389Z,81.2
2022-09-09T02:01:35.466Z,81
2022-09-09T02:03:35.389Z,81.1
2022-09-09T02:04:35.383Z,81.4
2022-09-09T02:05:35.390Z,81.1
2022-09-09T02:06:35.389Z,81.4
2022-09-09T02:07:35.389Z,81.3
2022-09-09T02:08:35.512Z,81.1
2022-09-09T02:09:35.396Z,81
2022-09-09T02:10:35.396Z,81.2
2022-09-09T02:11:35.392Z,81.5
2022-09-09T02:12:35.394Z,80.8
2022-09-09T02:13:35.387Z,81
2022-09-09T02:14:35.395Z,81.3
2022-09-09T02:15:35.382Z,81.7
2022-09-09T02:16:35.478Z,81.4
2022-09-09T02:17:35.393Z,81.1
2022-09-09T02:18:35.610Z,81.1
2022-09-09T02:19:35.394Z,81.2
2022-09-09T02:20:35.400Z,80.4
2022-09-09T02:21:35.416Z,80.7
2022-09-09T02:22:35.409Z,81
2022-09-09T02:24:35.394Z,80.8
2022-09-09T02:25:35.395Z,80.9
2022-09-09T02:26:35.393Z,80.5
2022-09-09T02:27:35.435Z,80.4
2022-09-09T02:28:35.655Z,80.6
2022-09-09T02:29:35.408Z,80.7
2022-09-09T02:30:35.441Z,80.8
2022-09-09T02:31:35.391Z,80.5
2022-09-09T02:32:35.395Z,80.3
2022-09-09T02:33:35.402Z,80.3
2022-09-09T02:34:35.401Z,80.3
2022-09-09T02:35:35.401Z,80.5
2022-09-09T02:36:35.393Z,80.7
2022-09-09T02:37:35.398Z,80.8
2022-09-09T02:38:35.595Z,80.8
2022-09-09T02:39:35.482Z,80
2022-09-09T02:40:35.409Z,79.7
2022-09-09T02:41:35.401Z,79.8
2022-09-09T02:42:35.399Z,80
2022-09-09T02:43:35.404Z,79.6
2022-09-09T02:45:35.461Z,79.5
2022-09-09T02:46:35.404Z,79.4
2022-09-09T02:47:35.396Z,79.6
2022-09-09T02:48:35.537Z,79.8
2022-09-09T02:49:35.398Z,79.6
2022-09-09T02:50:35.397Z,79.6
2022-09-09T02:51:35.406Z,79.6
2022-09-09T02:52:35.404Z,79.6
2022-09-09T02:53:35.408Z,79.7
2022-09-09T02:54:35.404Z,79.7
2022-09-09T02:55:35.409Z,79.6
2022-09-09T02:56:35.399Z,79.5
2022-09-09T02:57:35.407Z,79.9
2022-09-09T02:58:35.561Z,80.4
2022-09-09T02:59:35.411Z,80.5
2022-09-09T03:00:35.407Z,80.4
2022-09-09T03:01:35.478Z,79.8
2022-09-09T03:03:35.411Z,78.6
2022-09-09T03:04:35.415Z,78.5
2022-09-09T03:05:35.411Z,78.6
2022-09-09T03:06:35.408Z,79.7
2022-09-09T03:07:35.418Z,79.9
2022-09-09T03:08:35.518Z,80
2022-09-09T03:09:35.411Z,79.2
2022-09-09T03:10:35.414Z,78.7
2022-09-09T03:11:35.410Z,78.4
2022-09-09T03:12:35.415Z,79
2022-09-09T03:13:35.410Z,79.5
2022-09-09T03:14:35.407Z,79.8
2022-09-09T03:15:35.407Z,79.8
2022-09-09T03:16:35.641Z,79.6
2022-09-09T03:17:35.410Z,79.5
2022-09-09T03:18:35.609Z,79.4
2022-09-09T03:19:35.410Z,79.1
2022-09-09T03:20:35.415Z,79.3
2022-09-09T03:21:35.417Z,79.6
2022-09-09T03:22:35.459Z,79.9
2022-09-09T03:24:35.417Z,80
2022-09-09T03:25:35.412Z,79.7
2022-09-09T03:26:35.419Z,79.2
2022-09-09T03:27:35.417Z,79.5
2022-09-09T03:28:35.644Z,79.7
2022-09-09T03:29:35.437Z,79.2
2022-09-09T03:30:35.422Z,79.4
2022-09-09T03:31:35.455Z,79.6
2022-09-09T03:32:35.461Z,79.3
2022-09-09T03:33:35.425Z,79.5
2022-09-09T03:34:35.425Z,79.6
2022-09-09T03:35:35.423Z,79.6
2022-09-09T03:36:35.423Z,79.8
2022-09-09T03:37:35.457Z,79.7
2022-09-09T03:38:35.599Z,79.8
2022-09-09T03:39:35.484Z,80.2
2022-09-09T03:40:35.420Z,79.9
2022-09-09T03:41:35.419Z,79.8
2022-09-09T03:42:35.421Z,79.7
2022-09-09T03:43:35.428Z,80
2022-09-09T03:45:35.890Z,80
2022-09-09T03:46:35.420Z,79.8
2022-09-09T03:47:35.421Z,80.4
2022-09-09T03:48:35.558Z,80.3
2022-09-09T03:49:35.428Z,79.9
2022-09-09T03:50:35.437Z,79.9
2022-09-09T03:51:35.426Z,79.8
2022-09-09T03:52:35.458Z,79.8
2022-09-09T03:53:35.423Z,80.1
2022-09-09T03:54:35.422Z,80.5
2022-09-09T03:55:35.425Z,79.8
2022-09-09T03:56:35.422Z,80.1
2022-09-09T03:57:35.428Z,80.4
2022-09-09T03:58:35.605Z,80.3
2022-09-09T03:59:35.423Z,80.4
2022-09-09T04:00:35.456Z,79.4
2022-09-09T04:01:35.427Z,79.5
2022-09-09T04:02:35.541Z,80
2022-09-09T04:03:35.428Z,80
2022-09-09T04:04:35.430Z,80.3
2022-09-09T04:06:35.431Z,79.7
2022-09-09T04:07:35.464Z,80.1
2022-09-09T04:08:35.754Z,80.5
2022-09-09T04:09:35.426Z,80.6
2022-09-09T04:10:35.434Z,80.5
2022-09-09T04:11:35.431Z,80.5
2022-09-09T04:12:35.434Z,80.7
2022-09-09T04:13:35.432Z,80.4
2022-09-09T04:14:35.431Z,80
2022-09-09T04:15:35.432Z,80
2022-09-09T04:16:35.449Z,79.9
2022-09-09T04:17:35.433Z,80.2
2022-09-09T04:18:35.834Z,80.2
2022-09-09T04:19:35.432Z,80
2022-09-09T04:20:35.430Z,79.5
2022-09-09T04:21:35.435Z,79.5
2022-09-09T04:22:35.425Z,79.6
2022-09-09T04:23:35.439Z,79.8
2022-09-09T04:24:35.431Z,79.9
2022-09-09T04:25:35.430Z,79.9
2022-09-09T04:27:35.438Z,80.4
2022-09-09T04:28:35.588Z,80.7
2022-09-09T04:29:35.431Z,80.8
2022-09-09T04:30:35.431Z,80.1
2022-09-09T04:31:35.483Z,80.4
2022-09-09T04:32:35.429Z,80.4
2022-09-09T04:33:39.898Z,80.8
2022-09-09T04:34:35.430Z,80.7
2022-09-09T04:35:35.432Z,80.7
2022-09-09T04:36:35.439Z,80.6
2022-09-09T04:37:35.433Z,80.3
2022-09-09T04:38:35.560Z,80.4
2022-09-09T04:39:35.467Z,80.5
2022-09-09T04:40:35.435Z,80.5
2022-09-09T04:41:35.440Z,80.2
2022-09-09T04:42:35.440Z,80.5
2022-09-09T04:43:35.440Z,80.8
2022-09-09T04:44:35.464Z,81
2022-09-09T04:45:35.523Z,81.1
2022-09-09T04:46:35.443Z,80.5
2022-09-09T04:48:35.701Z,80.5
2022-09-09T04:49:35.444Z,80.6
2022-09-09T04:50:35.444Z,80.6
2022-09-09T04:51:35.453Z,80.5
2022-09-09T04:52:35.450Z,80.2
2022-09-09T04:53:35.463Z,80.2
2022-09-09T04:54:35.449Z,79.7
2022-09-09T04:55:35.441Z,79.7
2022-09-09T04:56:35.446Z,79.4
2022-09-09T04:57:35.443Z,79.7
2022-09-09T04:58:35.532Z,79.9
2022-09-09T04:59:35.459Z,80
2022-09-09T05:00:35.492Z,79.9
2022-09-09T05:01:35.448Z,79.6
2022-09-09T05:02:35.527Z,79.7
2022-09-09T05:03:35.447Z,79.7
2022-09-09T05:04:35.447Z,79.7
2022-09-09T05:05:35.442Z,79.7
2022-09-09T05:06:35.458Z,80.2
2022-09-09T05:07:35.442Z,80.5
2022-09-09T05:09:35.447Z,80.1
2022-09-09T05:10:35.453Z,79.6
2022-09-09T05:11:35.452Z,78.7
2022-09-09T05:12:35.453Z,78.8
2022-09-09T05:13:38.419Z,79.3
2022-09-09T05:14:35.458Z,79
2022-09-09T05:15:35.453Z,79.2
2022-09-09T05:16:35.627Z,79.3
2022-09-09T05:17:35.446Z,79.3
2022-09-09T05:18:35.465Z,79.2
2022-09-09T05:19:35.459Z,79.1
2022-09-09T05:20:35.469Z,79.2
2022-09-09T05:21:35.451Z,79.4
2022-09-09T05:22:35.450Z,79.6
2022-09-09T05:23:35.459Z,79.7
2022-09-09T05:24:35.456Z,79.6
2022-09-09T05:25:35.452Z,79.4
2022-09-09T05:27:35.463Z,78.9
2022-09-09T05:28:35.530Z,78.6
2022-09-09T05:29:35.461Z,78.5
2022-09-09T05:30:35.444Z,78.7
2022-09-09T05:31:35.521Z,78.3
2022-09-09T05:32:35.458Z,78.5
2022-09-09T05:34:35.448Z,78.4
2022-09-09T05:35:35.458Z,78.7
2022-09-09T05:36:35.449Z,78.4
2022-09-09T05:37:35.457Z,78.4
2022-09-09T05:38:35.546Z,78.4
2022-09-09T05:39:35.468Z,78.1
2022-09-09T05:40:35.458Z,78
2022-09-09T05:41:35.454Z,78.2
2022-09-09T05:42:35.471Z,78.3
2022-09-09T05:43:35.462Z,78.2
2022-09-09T05:44:35.460Z,78.6
2022-09-09T05:45:35.450Z,78.6
2022-09-09T05:46:35.504Z,78.5
2022-09-09T05:48:35.513Z,78.1
2022-09-09T05:49:35.456Z,77.1
2022-09-09T05:50:35.459Z,77.2
2022-09-09T05:52:35.460Z,77.2
2022-09-09T05:53:35.461Z,77.6
2022-09-09T05:54:35.465Z,78
2022-09-09T05:55:35.470Z,77.9
2022-09-09T05:56:35.459Z,77.7
2022-09-09T05:57:35.467Z,77.5
2022-09-09T05:58:35.466Z,78.9
2022-09-09T05:59:35.464Z,79
2022-09-09T06:00:35.478Z,79
2022-09-09T06:01:35.524Z,79.1
2022-09-09T06:03:35.472Z,78.3
2022-09-09T06:04:35.494Z,77.3
2022-09-09T06:05:35.550Z,77.1
2022-09-09T06:06:35.461Z,77.3
2022-09-09T06:07:35.463Z,77.6
2022-09-09T06:09:35.466Z,76.8
2022-09-09T06:10:35.471Z,77.3
2022-09-09T06:11:35.464Z,77.2
2022-09-09T06:12:35.470Z,77
2022-09-09T06:13:35.472Z,77
2022-09-09T06:14:35.476Z,76.4
2022-09-09T06:15:35.473Z,76.8
2022-09-09T06:16:35.515Z,76.8
2022-09-09T06:17:35.469Z,76.9
2022-09-09T06:18:35.480Z,76.8
2022-09-09T06:19:35.472Z,76.7
2022-09-09T06:20:35.481Z,75.6
2022-09-09T06:21:35.470Z,75.3
2022-09-09T06:22:35.479Z,75.4
2022-09-09T06:23:35.471Z,75.4
2022-09-09T06:24:35.468Z,74.9
2022-09-09T06:25:35.473Z,75.1
2022-09-09T06:26:35.475Z,75.6
2022-09-09T06:27:35.487Z,76.1
2022-09-09T06:28:35.494Z,76.1
2022-09-09T06:30:35.471Z,74.7
2022-09-09T06:31:35.773Z,74.4
2022-09-09T06:32:35.472Z,74.7
2022-09-09T06:34:35.480Z,74.9
2022-09-09T06:35:35.498Z,74.9
2022-09-09T06:36:35.471Z,74.4
2022-09-09T06:37:35.480Z,75.1
2022-09-09T06:38:35.607Z,75.3
2022-09-09T06:39:35.538Z,74.6
2022-09-09T06:40:35.500Z,74
2022-09-09T06:42:35.476Z,75.3
2022-09-09T06:43:35.478Z,75.4
2022-09-09T06:45:35.476Z,75.2
2022-09-09T06:46:35.526Z,75.5
2022-09-09T06:47:35.477Z,75.2
2022-09-09T06:49:35.478Z,74.5
2022-09-09T06:50:35.493Z,74.9
2022-09-09T06:51:35.484Z,75.3
2022-09-09T06:53:35.483Z,74.8
2022-09-09T06:54:35.484Z,74.8
2022-09-09T06:55:35.477Z,74.3
2022-09-09T06:56:35.471Z,73.9
2022-09-09T06:57:37.697Z,73.9
2022-09-09T06:58:35.486Z,74.6
2022-09-09T06:59:35.483Z,74.6
2022-09-09T07:00:35.498Z,73.6
2022-09-09T07:01:35.587Z,73.9
2022-09-09T07:02:35.481Z,74.1
2022-09-09T07:03:35.489Z,74.2
2022-09-09T07:04:35.479Z,73.2
2022-09-09T07:05:35.481Z,73.1
2022-09-09T07:06:35.513Z,73.8
2022-09-09T07:07:35.487Z,73.1
2022-09-09T07:08:35.547Z,73.1
2022-09-09T07:10:35.484Z,73
2022-09-09T07:11:35.488Z,73.3
2022-09-09T07:12:35.485Z,73.3
2022-09-09T07:13:35.481Z,73
2022-09-09T07:14:35.484Z,73.4
2022-09-09T07:15:35.480Z,73.8
2022-09-09T07:16:35.516Z,73.5
2022-09-09T07:17:35.504Z,72.1
2022-09-09T07:18:35.637Z,72.5
2022-09-09T07:19:35.490Z,72.3
2022-09-09T07:21:35.486Z,71.7
2022-09-09T07:22:35.494Z,71
2022-09-09T07:23:36.400Z,71.2
2022-09-09T07:24:35.488Z,71.5
2022-09-09T07:25:35.501Z,71.9
2022-09-09T07:26:35.488Z,72.5
2022-09-09T07:27:35.489Z,72
2022-09-09T07:28:35.635Z,72
2022-09-09T07:29:35.495Z,71.5
2022-09-09T07:31:35.514Z,70.4
2022-09-09T07:32:35.494Z,70.6
2022-09-09T07:33:35.492Z,70.8
2022-09-09T07:34:35.497Z,70.4
2022-09-09T07:35:35.487Z,70.5
2022-09-09T07:36:35.503Z,69.4
2022-09-09T07:37:35.529Z,69.2
2022-09-09T07:38:35.562Z,69.9
2022-09-09T07:39:35.523Z,70.9
2022-09-09T07:40:35.487Z,71.4
2022-09-09T07:41:35.510Z,69.9
2022-09-09T07:42:35.496Z,69.5
2022-09-09T07:43:35.497Z,70.5
2022-09-09T07:44:35.499Z,69.5
2022-09-09T07:45:35.493Z,68.7
2022-09-09T07:46:35.580Z,68.8
2022-09-09T07:47:35.510Z,66.9
2022-09-09T07:48:35.603Z,68
2022-09-09T07:49:35.503Z,67.8
2022-09-09T07:50:35.508Z,67.3
2022-09-09T07:52:35.503Z,66.9
2022-09-09T07:53:35.646Z,66.6
2022-09-09T07:54:35.509Z,66.1
2022-09-09T07:55:35.501Z,66.2
2022-09-09T07:56:35.501Z,67
2022-09-09T07:57:35.499Z,67.4
2022-09-09T07:58:38.451Z,67.2
2022-09-09T07:59:35.505Z,66.6
2022-09-09T08:00:35.515Z,66.7
2022-09-09T08:01:35.616Z,66.5
2022-09-09T08:03:35.502Z,64.1
2022-09-09T08:04:35.504Z,63.8
2022-09-09T08:05:35.501Z,62.9
2022-09-09T08:07:35.500Z,64.9
2022-09-09T08:08:35.529Z,63.6
2022-09-09T08:09:35.510Z,64.1
2022-09-09T08:10:35.502Z,65.6
2022-09-09T08:11:39.036Z,64.6
2022-09-09T08:13:35.547Z,63.1
2022-09-09T08:14:35.528Z,63.6
2022-09-09T08:15:35.695Z,62.8
2022-09-09T08:16:35.535Z,63.1
2022-09-09T08:17:35.505Z,63.2
2022-09-09T08:19:35.505Z,63.6
2022-09-09T08:20:35.507Z,64
2022-09-09T08:21:35.607Z,63.1
2022-09-09T08:22:35.544Z,62
2022-09-09T08:23:35.580Z,63
2022-09-09T08:24:35.505Z,62.4
2022-09-09T08:25:35.510Z,64
2022-09-09T08:26:35.632Z,63.6
2022-09-09T08:27:35.510Z,63
2022-09-09T08:28:35.517Z,63.7
2022-09-09T08:29:35.506Z,62.6
2022-09-09T08:30:35.511Z,62.8
2022-09-09T08:31:35.510Z,63.3
2022-09-09T08:32:35.562Z,61.6
2022-09-09T08:34:35.513Z,61.1
2022-09-09T08:35:35.510Z,61.6
2022-09-09T08:36:35.599Z,61.7
2022-09-09T08:37:35.520Z,61.2
2022-09-09T08:38:35.517Z,61.6
2022-09-09T08:40:35.516Z,62.6
2022-09-09T08:41:35.518Z,62
2022-09-09T08:42:35.524Z,61.6
2022-09-09T08:43:35.517Z,61
2022-09-09T08:44:35.519Z,61.5
2022-09-09T08:45:35.527Z,61.7
2022-09-09T08:46:35.583Z,61.6
2022-09-09T08:47:35.575Z,61.8
2022-09-09T08:48:35.537Z,61.6
2022-09-09T08:49:35.512Z,60.9
2022-09-09T08:50:35.510Z,61.7
2022-09-09T08:51:35.517Z,60.8
2022-09-09T08:52:35.515Z,59.7
2022-09-09T08:53:35.518Z,60.4
2022-09-09T08:54:51.087Z,60.3
2022-09-09T08:55:35.518Z,59
2022-09-09T08:56:35.513Z,59
2022-09-09T08:57:35.517Z,59
2022-09-09T08:58:35.669Z,57.5
2022-09-09T08:59:35.519Z,58.6
2022-09-09T09:01:35.609Z,57.8
2022-09-09T09:02:35.521Z,58.2
2022-09-09T09:03:35.531Z,57.3
2022-09-09T09:04:35.620Z,57.1
2022-09-09T09:07:35.526Z,57.4
2022-09-09T09:08:35.526Z,57.4
2022-09-09T09:09:35.525Z,57.6
2022-09-09T09:10:42.018Z,55.9
2022-09-09T09:11:35.524Z,55.7
2022-09-09T09:12:35.531Z,55.8
2022-09-09T09:13:36.851Z,55.6
2022-09-09T09:14:35.538Z,55.5
2022-09-09T09:15:35.569Z,54.4
2022-09-09T09:16:35.523Z,54.7
2022-09-09T09:17:35.526Z,53.8
2022-09-09T09:18:35.536Z,56.1
2022-09-09T09:19:35.525Z,53.9
2022-09-09T09:20:35.533Z,54
2022-09-09T09:21:35.528Z,53.1
2022-09-09T09:22:35.594Z,53.3
2022-09-09T09:23:35.535Z,52.6
2022-09-09T09:24:35.530Z,53.5
2022-09-09T09:25:35.529Z,53.9
2022-09-09T09:27:35.522Z,52.8
2022-09-09T09:28:35.582Z,52.1
2022-09-09T09:29:50.534Z,52.9
2022-09-09T09:31:35.542Z,52.5
2022-09-09T09:32:35.534Z,52.6
2022-09-09T09:33:35.533Z,52.9
2022-09-09T09:34:35.531Z,53.1
2022-09-09T09:35:40.483Z,54
2022-09-09T09:36:35.529Z,53.5
2022-09-09T09:37:35.945Z,53.5
2022-09-09T09:40:05.071Z,53.6
2022-09-09T09:40:35.534Z,53
2022-09-09T09:41:35.551Z,52.2
2022-09-09T09:42:35.535Z,52.9
2022-09-09T09:43:35.539Z,53.3
2022-09-09T09:44:35.531Z,53.4
2022-09-09T09:45:35.531Z,52.9
2022-09-09T09:46:35.605Z,53.6
2022-09-09T09:48:35.535Z,53.8
2022-09-09T09:49:35.534Z,53.2
2022-09-09T09:50:35.542Z,52.3
2022-09-09T09:52:35.532Z,52.8
2022-09-09T09:53:35.537Z,54.2
2022-09-09T09:54:35.537Z,53
2022-09-09T09:56:35.534Z,54.2
2022-09-09T09:57:35.553Z,53.2
2022-09-09T09:58:35.601Z,53
2022-09-09T09:59:39.794Z,53.2
2022-09-09T10:00:35.537Z,53.5
2022-09-09T10:01:35.627Z,53.2
2022-09-09T10:02:35.540Z,52.8
2022-09-09T10:03:35.543Z,53.8
2022-09-09T10:04:35.611Z,53.9
2022-09-09T10:05:36.359Z,54.1
2022-09-09T10:06:35.540Z,53.7
2022-09-09T10:07:35.543Z,54
2022-09-09T10:09:35.546Z,53.8
2022-09-09T10:10:35.548Z,54.1
2022-09-09T10:11:35.550Z,53.7
2022-09-09T10:13:35.543Z,53.7
2022-09-09T10:14:35.547Z,53.9
2022-09-09T10:15:35.607Z,53.8
2022-09-09T10:16:35.543Z,54.1
2022-09-09T10:17:35.547Z,54.4
2022-09-09T10:18:35.611Z,53.6
2022-09-09T10:19:35.546Z,53
2022-09-09T10:20:35.544Z,53.1
2022-09-09T10:21:35.632Z,53.6
2022-09-09T10:22:35.549Z,54.1
2022-09-09T10:23:35.549Z,54
2022-09-09T10:24:35.546Z,53.5
2022-09-09T10:25:35.549Z,53.2
2022-09-09T10:26:35.600Z,52.8
2022-09-09T10:30:35.626Z,51
2022-09-09T10:31:35.559Z,49.7
2022-09-09T10:32:35.547Z,50
2022-09-09T10:34:35.547Z,48.6
2022-09-09T10:35:35.551Z,49.6
2022-09-09T10:36:35.560Z,51.4
2022-09-09T10:37:35.555Z,48.8
2022-09-09T10:38:35.553Z,49.3
2022-09-09T10:39:39.194Z,49.1
2022-09-09T10:40:35.556Z,47.9
2022-09-09T10:41:35.550Z,48.4
2022-09-09T10:42:35.556Z,48.2
2022-09-09T10:43:35.592Z,47.9
2022-09-09T10:44:35.560Z,48.2
2022-09-09T10:45:35.567Z,48.7
2022-09-09T10:46:35.605Z,49.3
2022-09-09T10:47:35.557Z,48.2
2022-09-09T10:48:35.555Z,48.6
2022-09-09T10:49:35.584Z,48.4
2022-09-09T10:50:59.913Z,49
2022-09-09T10:51:35.572Z,49.1
2022-09-09T10:53:35.565Z,48.9
2022-09-09T10:54:35.557Z,47.9
2022-09-09T10:55:35.562Z,48.6
2022-09-09T10:56:35.555Z,49.2
2022-09-09T10:57:35.568Z,48.8
2022-09-09T10:59:35.562Z,48.6
2022-09-09T11:00:35.570Z,49
2022-09-09T11:01:35.596Z,48.9
2022-09-09T11:02:35.569Z,48.7
2022-09-09T11:03:35.564Z,49.1
2022-09-09T11:04:35.569Z,49
2022-09-09T11:05:35.564Z,49.3
2022-09-09T11:06:35.591Z,50.5
2022-09-09T11:07:35.574Z,49.2
2022-09-09T11:08:35.585Z,49.3
2022-09-09T11:09:35.584Z,49
2022-09-09T11:10:35.565Z,49.9
2022-09-09T11:11:35.561Z,49.7
2022-09-09T11:12:35.565Z,49.3
2022-09-09T11:14:37.666Z,49.2
2022-09-09T11:15:35.567Z,49.4
2022-09-09T11:16:35.624Z,49.4
2022-09-09T11:17:35.569Z,48.9
2022-09-09T11:18:35.607Z,49.2
2022-09-09T11:20:35.570Z,48.9
2022-09-09T11:21:35.574Z,48.7
2022-09-09T11:22:35.574Z,49.1
2022-09-09T11:23:39.960Z,48.7
2022-09-09T11:24:35.617Z,49
2022-09-09T11:25:35.570Z,48.9
2022-09-09T11:26:35.565Z,49
2022-09-09T11:27:35.570Z,49.7
2022-09-09T11:28:35.647Z,49.6
2022-09-09T11:29:35.607Z,49.7
2022-09-09T11:30:55.573Z,50.1
2022-09-09T11:31:35.624Z,49.2
2022-09-09T11:32:35.570Z,49.4
2022-09-09T11:33:35.580Z,49.1
2022-09-09T11:35:35.576Z,49.1
2022-09-09T11:36:35.577Z,49
2022-09-09T11:37:35.570Z,48.5
2022-09-09T11:38:35.582Z,48.4
2022-09-09T11:39:35.591Z,48.8
2022-09-09T11:40:35.578Z,49.3
2022-09-09T11:41:35.577Z,48.7
2022-09-09T11:42:35.591Z,49.2
2022-09-09T11:43:35.574Z,49.1
2022-09-09T11:44:35.581Z,48.4
2022-09-09T11:45:35.621Z,49
2022-09-09T11:46:35.660Z,49.2
2022-09-09T11:47:35.585Z,49.8
2022-09-09T11:48:35.825Z,49.8
2022-09-09T11:49:35.605Z,49.4
2022-09-09T11:50:35.584Z,48.6
2022-09-09T11:51:35.579Z,48.9
2022-09-09T11:52:35.586Z,49.3
2022-09-09T11:53:35.614Z,49.3
2022-09-09T11:54:35.590Z,49.6
2022-09-09T11:55:35.579Z,48.7
2022-09-09T11:56:35.586Z,48.7
2022-09-09T11:57:35.585Z,49.5
2022-09-09T11:58:35.588Z,49.4
2022-09-09T11:59:35.582Z,49.5
2022-09-09T12:00:35.588Z,49.2
2022-09-09T12:03:35.595Z,49.4
2022-09-09T12:04:35.637Z,49.5
2022-09-09T12:05:35.585Z,48.7
2022-09-09T12:06:35.591Z,49.1
2022-09-09T12:07:35.652Z,50
2022-09-09T12:08:35.586Z,49.8
2022-09-09T12:09:35.597Z,49.8
2022-09-09T12:10:35.580Z,50
2022-09-09T12:11:35.591Z,50.5
2022-09-09T12:12:38.220Z,50.4
2022-09-09T12:13:35.587Z,50.2
2022-09-09T12:14:35.593Z,50.9
2022-09-09T12:15:35.833Z,51
2022-09-09T12:16:35.765Z,51.1
2022-09-09T12:17:35.598Z,50.6
2022-09-09T12:18:35.596Z,51.1
2022-09-09T12:19:35.587Z,51
2022-09-09T12:20:35.590Z,51
2022-09-09T12:21:35.592Z,51.1
2022-09-09T12:24:35.593Z,50.9
2022-09-09T12:25:35.588Z,50.7
2022-09-09T12:26:35.603Z,50.3
2022-09-09T12:27:35.594Z,50
2022-09-09T12:28:35.598Z,50.4
2022-09-09T12:29:35.601Z,49.6
2022-09-09T12:30:35.630Z,49.5
2022-09-09T12:31:35.597Z,48.4
2022-09-09T12:32:35.600Z,48.5
2022-09-09T12:33:35.608Z,49.2
2022-09-09T12:34:35.598Z,49
2022-09-09T12:35:35.603Z,49.2
2022-09-09T12:36:35.595Z,49.1
2022-09-09T12:37:35.600Z,49.4
2022-09-09T12:39:35.628Z,50
2022-09-09T12:40:35.596Z,50.3
2022-09-09T12:41:35.603Z,49.7
2022-09-09T12:42:40.522Z,49.8
2022-09-09T12:43:35.624Z,49.9
2022-09-09T12:44:35.599Z,50.2
2022-09-09T12:45:35.601Z,49.8
2022-09-09T12:46:35.600Z,49.8
2022-09-09T12:47:36.018Z,49.8
2022-09-09T12:48:35.892Z,49.9
2022-09-09T12:49:35.614Z,50
2022-09-09T12:50:35.599Z,50.9
2022-09-09T12:51:35.601Z,50.4
2022-09-09T12:52:35.601Z,50.2
2022-09-09T12:53:35.616Z,50.3
2022-09-09T12:54:35.607Z,50.6
2022-09-09T12:55:35.603Z,50.7
2022-09-09T12:56:35.599Z,51
2022-09-09T12:57:35.621Z,51.3
2022-09-09T12:58:35.688Z,53.7
2022-09-09T12:59:35.614Z,57.1
2022-09-09T13:00:35.608Z,60
2022-09-09T13:01:35.848Z,62.8
2022-09-09T13:03:35.608Z,67
2022-09-09T13:04:35.607Z,66.5
2022-09-09T13:05:35.606Z,68.1
2022-09-09T13:06:35.624Z,68.8
2022-09-09T13:07:35.608Z,69.2
2022-09-09T13:08:35.686Z,70.9
2022-09-09T13:09:36.480Z,69.9
2022-09-09T13:10:43.286Z,70.1
2022-09-09T13:11:35.611Z,71
2022-09-09T13:12:35.605Z,71.6
2022-09-09T13:14:35.612Z,72.4
2022-09-09T13:15:35.608Z,73
2022-09-09T13:16:39.095Z,72.9
2022-09-09T13:17:35.608Z,73.3
2022-09-09T13:18:35.641Z,73.7
2022-09-09T13:19:35.610Z,74.7
2022-09-09T13:20:35.613Z,74.9
2022-09-09T13:21:35.607Z,75.9
2022-09-09T13:22:35.614Z,75.8
2022-09-09T13:24:35.618Z,75.5
2022-09-09T13:25:35.612Z,75.6
2022-09-09T13:27:35.609Z,77.1
2022-09-09T13:28:35.614Z,77.7
2022-09-09T13:29:35.618Z,78.6
2022-09-09T13:31:35.613Z,77.8
2022-09-09T13:32:35.618Z,79
2022-09-09T13:33:35.747Z,79
2022-09-09T13:35:35.617Z,78.4
2022-09-09T13:36:35.611Z,79
2022-09-09T13:37:35.625Z,78.5
2022-09-09T13:38:35.619Z,78.1
2022-09-09T13:39:35.687Z,77.9
2022-09-09T13:40:35.623Z,78.2
2022-09-09T13:42:35.616Z,77.6
2022-09-09T13:43:35.647Z,77.5
2022-09-09T13:44:35.621Z,77.7
2022-09-09T13:45:35.645Z,77.7
2022-09-09T13:46:35.620Z,77.3
2022-09-09T13:47:35.624Z,76.4
2022-09-09T13:48:35.625Z,77.4
2022-09-09T13:49:35.647Z,76.4
2022-09-09T13:50:36.021Z,77.4
2022-09-09T13:52:35.624Z,77.8
2022-09-09T13:53:36.666Z,77.3
2022-09-09T13:54:35.633Z,77.7
2022-09-09T13:55:35.626Z,76.1
2022-09-09T13:56:35.624Z,77
2022-09-09T13:57:35.624Z,77.3
2022-09-09T13:58:36.084Z,77.6
2022-09-09T14:00:01.041Z,79.1
2022-09-09T14:00:35.631Z,77.9
2022-09-09T14:01:35.686Z,75.6
2022-09-09T14:03:35.634Z,76.2
2022-09-09T14:04:35.627Z,75.2
2022-09-09T14:05:35.628Z,75.4
2022-09-09T14:06:35.624Z,76
2022-09-09T14:07:35.629Z,75.6
2022-09-09T14:08:35.633Z,76.3
2022-09-09T14:09:35.632Z,73.4
2022-09-09T14:10:35.636Z,74.1
2022-09-09T14:11:35.638Z,75.3
2022-09-09T14:14:35.640Z,73.1
2022-09-09T14:15:35.625Z,73.2
2022-09-09T14:16:35.641Z,73.5
2022-09-09T14:17:35.633Z,72.3
2022-09-09T14:18:35.668Z,72.9
2022-09-09T14:19:35.632Z,72.6
2022-09-09T14:20:35.659Z,72.5
2022-09-09T14:22:35.701Z,74.1
2022-09-09T14:23:35.641Z,74.3
2022-09-09T14:24:35.631Z,74.2
2022-09-09T14:25:35.653Z,74.3
2022-09-09T14:26:35.629Z,74
2022-09-09T14:27:35.637Z,73.2
2022-09-09T14:28:54.402Z,73
2022-09-09T14:29:35.641Z,74.2
2022-09-09T14:30:35.716Z,71.8
2022-09-09T14:31:35.639Z,71.8
2022-09-09T14:32:35.644Z,71.7
2022-09-09T14:33:35.638Z,69.2
2022-09-09T14:34:35.639Z,68.4
2022-09-09T14:35:35.638Z,69.5
2022-09-09T14:36:35.642Z,69.5
2022-09-09T14:37:35.644Z,69.2
2022-09-09T14:38:35.644Z,70.7